Terminal Aerodrome Forecast
Issued by NWS

Home | Current Version | Previous Version | Text Only | Print | Product List | Glossary On
Versions: 1 2 3 4 5 6 7 8 9 10 11 12 13 14 15 16 17 18
674
FTUS46 KEKA 270521
TAFCEC
TAF
KCEC 270521Z 2706/2806 34004KT P6SM OVC025
     FM271000 00000KT 6SM BR BKN015 OVC020
     FM271400 07002KT 4SM BR BKN009 OVC020
     FM271800 30008KT P6SM BKN025=

USA.gov is the U.S. government's official web portal to all federal, state and local government web resources and services.